createdAt,value
2022-08-20T00:00:00.511Z,106.85
2022-08-20T00:02:51.565Z,105.75
2022-08-20T00:05:41.827Z,104.50
2022-08-20T00:08:29.846Z,103.68
2022-08-20T00:11:21.293Z,104.50
2022-08-20T00:14:10.003Z,101.88
2022-08-20T00:16:57.024Z,105.63
2022-08-20T00:19:47.112Z,106.25
2022-08-20T00:22:34.372Z,109.00
2022-08-20T00:25:21.625Z,107.68
2022-08-20T00:28:08.726Z,102.05
2022-08-20T00:30:55.676Z,106.35
2022-08-20T00:33:43.002Z,105.65
2022-08-20T00:36:32.967Z,104.63
2022-08-20T00:39:20.144Z,105.70
2022-08-20T00:42:07.623Z,108.50
2022-08-20T00:44:54.570Z,108.18
2022-08-20T00:47:51.508Z,106.90
2022-08-20T00:50:38.982Z,106.93
2022-08-20T00:53:27.000Z,106.55
2022-08-20T00:56:14.165Z,104.30
2022-08-20T00:59:02.997Z,107.75
2022-08-20T01:01:56.165Z,105.53
2022-08-20T01:04:56.725Z,103.28
2022-08-20T01:07:45.110Z,104.20
2022-08-20T01:10:38.692Z,104.18
2022-08-20T01:13:27.000Z,103.50
2022-08-20T01:16:28.136Z,102.25
2022-08-20T01:19:30.181Z,105.35
2022-08-20T01:22:44.066Z,102.10
2022-08-20T01:25:53.734Z,105.50
2022-08-20T01:29:01.573Z,102.85
2022-08-20T01:31:48.990Z,102.50
2022-08-20T01:34:35.931Z,101.75
2022-08-20T01:37:22.905Z,104.32
2022-08-20T01:40:31.977Z,105.63
2022-08-20T01:43:19.133Z,104.60
2022-08-20T01:46:10.129Z,101.88
2022-08-20T01:48:59.827Z,103.20
2022-08-20T01:51:47.649Z,102.40
2022-08-20T01:54:36.217Z,101.13
2022-08-20T01:57:26.901Z,99.57
2022-08-20T02:00:19.659Z,103.90
2022-08-20T02:03:08.746Z,104.05
2022-08-20T02:05:59.049Z,103.90
2022-08-20T02:08:46.080Z,101.47
2022-08-20T02:11:34.529Z,103.60
2022-08-20T02:14:21.713Z,103.60
2022-08-20T02:17:10.967Z,105.05
2022-08-20T02:20:07.262Z,103.53
2022-08-20T02:22:57.267Z,100.10
2022-08-20T02:25:47.554Z,101.65
2022-08-20T02:28:34.784Z,102.53
2022-08-20T02:31:22.973Z,101.78
2022-08-20T02:34:14.815Z,102.80
2022-08-20T02:37:10.521Z,102.65
2022-08-20T02:39:57.519Z,100.95
2022-08-20T02:42:44.992Z,101.90
2022-08-20T02:45:37.456Z,99.53
2022-08-20T02:48:24.576Z,98.22
2022-08-20T02:51:11.557Z,101.30
2022-08-20T02:53:58.566Z,99.28
2022-08-20T02:56:45.613Z,103.75
2022-08-20T02:59:32.674Z,104.05
2022-08-20T03:02:20.121Z,104.72
2022-08-20T03:05:08.019Z,102.70
2022-08-20T03:07:56.582Z,100.90
2022-08-20T03:10:46.155Z,102.70
2022-08-20T03:13:33.273Z,102.40
2022-08-20T03:16:20.307Z,104.05
2022-08-20T03:19:07.384Z,105.22
2022-08-20T03:21:54.366Z,100.95
2022-08-20T03:24:41.328Z,102.80
2022-08-20T03:27:32.695Z,100.85
2022-08-20T03:30:25.691Z,102.20
2022-08-20T03:33:12.728Z,100.28
2022-08-20T03:35:59.927Z,101.57
2022-08-20T03:38:46.895Z,100.13
2022-08-20T03:41:33.818Z,98.75
2022-08-20T03:44:20.840Z,97.95
2022-08-20T03:47:09.510Z,102.38
2022-08-20T03:50:00.674Z,100.32
2022-08-20T03:52:47.708Z,101.47
2022-08-20T03:55:34.983Z,100.85
2022-08-20T03:58:33.274Z,99.90
2022-08-20T04:01:45.481Z,101.97
2022-08-20T04:04:29.573Z,99.60
2022-08-20T04:07:25.435Z,97.03
2022-08-20T04:10:13.797Z,96.68
2022-08-20T04:13:01.615Z,96.70
2022-08-20T04:15:48.971Z,99.22
2022-08-20T04:18:37.941Z,96.95
2022-08-20T04:21:25.067Z,97.80
2022-08-20T04:24:22.673Z,97.68
2022-08-20T04:27:20.383Z,95.65
2022-08-20T04:30:11.092Z,96.60
2022-08-20T04:32:59.636Z,97.80
2022-08-20T04:35:46.639Z,97.25
2022-08-20T04:38:50.574Z,98.13
2022-08-20T04:41:38.024Z,97.28
2022-08-20T04:44:25.142Z,95.80
2022-08-20T04:47:12.105Z,94.55
2022-08-20T04:50:02.178Z,95.40
2022-08-20T04:52:49.628Z,94.97
2022-08-20T04:55:39.326Z,96.25
2022-08-20T04:58:33.753Z,97.00
2022-08-20T05:01:21.946Z,97.25
2022-08-20T05:04:09.108Z,97.07
2022-08-20T05:06:56.070Z,95.30
2022-08-20T05:09:43.797Z,96.50
2022-08-20T05:12:31.294Z,97.68
2022-08-20T05:15:18.411Z,98.82
2022-08-20T05:18:07.989Z,98.72
2022-08-20T05:21:06.028Z,98.63
2022-08-20T05:23:53.115Z,98.90
2022-08-20T05:26:40.240Z,100.25
2022-08-20T05:29:28.587Z,99.72
2022-08-20T05:32:15.655Z,97.88
2022-08-20T05:35:05.379Z,100.78
2022-08-20T05:37:52.727Z,97.30
2022-08-20T05:40:42.118Z,103.13
2022-08-20T05:43:29.144Z,98.78
2022-08-20T05:46:17.042Z,99.70
2022-08-20T05:49:04.140Z,100.18
2022-08-20T05:51:51.507Z,101.05
2022-08-20T05:54:38.506Z,100.55
2022-08-20T05:57:25.478Z,99.68
2022-08-20T06:00:14.511Z,99.20
2022-08-20T06:03:20.227Z,100.03
2022-08-20T06:06:18.294Z,99.70
2022-08-20T06:09:28.126Z,99.38
2022-08-20T06:12:19.202Z,101.05
2022-08-20T06:15:07.271Z,100.88
2022-08-20T06:17:58.360Z,102.35
2022-08-20T06:20:46.068Z,100.38
2022-08-20T06:23:59.010Z,102.22
2022-08-20T06:26:40.042Z,103.78
2022-08-20T06:29:28.801Z,105.68
2022-08-20T06:32:15.803Z,101.90
2022-08-20T06:35:06.033Z,105.63
2022-08-20T06:37:54.395Z,104.35
2022-08-20T06:40:41.608Z,104.97
2022-08-20T06:43:28.640Z,109.07
2022-08-20T06:46:15.651Z,109.03
2022-08-20T06:49:04.492Z,110.90
2022-08-20T06:51:51.991Z,113.07
2022-08-20T06:54:39.164Z,116.82
2022-08-20T06:57:26.244Z,115.50
2022-08-20T07:00:17.670Z,116.28
2022-08-20T07:03:05.406Z,121.32
2022-08-20T07:05:52.450Z,123.53
2022-08-20T07:08:39.590Z,121.75
2022-08-20T07:11:28.661Z,124.80
2022-08-20T07:14:17.013Z,122.80
2022-08-20T07:17:04.690Z,124.32
2022-08-20T07:19:59.210Z,130.55
2022-08-20T07:22:46.164Z,127.15
2022-08-20T07:25:33.789Z,127.22
2022-08-20T07:28:23.436Z,127.97
2022-08-20T07:31:31.510Z,127.25
2022-08-20T07:34:19.754Z,129.70
2022-08-20T07:37:06.706Z,127.88
2022-08-20T07:39:53.842Z,131.02
2022-08-20T07:42:41.092Z,131.77
2022-08-20T07:45:29.589Z,127.88
2022-08-20T07:48:31.142Z,129.75
2022-08-20T07:51:22.440Z,128.32
2022-08-20T07:54:09.583Z,129.20
2022-08-20T07:56:56.549Z,131.32
2022-08-20T07:59:45.367Z,132.80
2022-08-20T08:02:34.223Z,134.30
2022-08-20T08:05:21.271Z,134.43
2022-08-20T08:08:11.216Z,136.80
2022-08-20T08:11:00.956Z,134.27
2022-08-20T08:13:48.325Z,132.57
2022-08-20T08:16:36.932Z,129.77
2022-08-20T08:19:26.380Z,127.47
2022-08-20T08:22:16.341Z,126.53
2022-08-20T08:25:03.474Z,125.07
2022-08-20T08:27:50.433Z,125.28
2022-08-20T08:30:42.466Z,125.28
2022-08-20T08:33:32.431Z,119.22
2022-08-20T08:36:20.061Z,121.55
2022-08-20T08:39:07.213Z,120.88
2022-08-20T08:41:57.309Z,120.93
2022-08-20T08:44:44.279Z,117.85
2022-08-20T08:47:35.994Z,119.18
2022-08-20T08:50:49.995Z,118.38
2022-08-20T08:53:39.487Z,120.75
2022-08-20T08:56:30.740Z,124.20
2022-08-20T08:59:19.999Z,127.10
2022-08-20T09:02:07.137Z,127.32
2022-08-20T09:05:00.423Z,126.38
2022-08-20T09:07:53.045Z,125.82
2022-08-20T09:10:42.777Z,127.95
2022-08-20T09:13:30.137Z,126.78
2022-08-20T09:16:17.364Z,134.10
2022-08-20T09:19:04.663Z,128.48
2022-08-20T09:21:51.783Z,133.10
2022-08-20T09:24:40.469Z,132.50
2022-08-20T09:27:27.413Z,134.00
2022-08-20T09:30:15.789Z,138.35
2022-08-20T09:33:06.144Z,144.13
2022-08-20T09:35:53.194Z,159.65
2022-08-20T09:38:40.300Z,172.32
2022-08-20T09:41:27.386Z,181.07
2022-08-20T09:44:14.309Z,178.57
2022-08-20T09:47:01.437Z,181.48
2022-08-20T09:49:49.265Z,186.65
2022-08-20T09:52:42.500Z,192.65
2022-08-20T09:55:38.078Z,202.68
2022-08-20T09:58:47.258Z,196.68
2022-08-20T10:01:35.023Z,182.82
2022-08-20T10:04:22.239Z,180.80
2022-08-20T10:07:09.301Z,180.63
2022-08-20T10:09:56.632Z,185.30
2022-08-20T10:12:43.757Z,185.68
2022-08-20T10:15:31.643Z,187.23
2022-08-20T10:18:18.757Z,183.93
2022-08-20T10:21:12.761Z,186.23
2022-08-20T10:24:00.078Z,180.70
2022-08-20T10:26:47.842Z,187.52
2022-08-20T10:29:35.062Z,181.30
2022-08-20T10:32:22.105Z,182.25
2022-08-20T10:35:09.716Z,185.05
2022-08-20T10:37:56.823Z,184.18
2022-08-20T10:40:52.272Z,183.55
2022-08-20T10:46:26.533Z,168.93
2022-08-20T10:49:13.500Z,165.77
2022-08-20T10:52:00.500Z,168.70
2022-08-20T10:54:48.083Z,164.95
2022-08-20T10:57:35.244Z,165.40
2022-08-20T11:00:23.137Z,163.13
2022-08-20T11:03:10.043Z,157.48
2022-08-20T11:05:57.273Z,165.65
2022-08-20T11:08:44.301Z,163.15
2022-08-20T11:11:31.248Z,171.60
2022-08-20T11:14:18.433Z,175.20
2022-08-20T11:17:06.652Z,176.98
2022-08-20T11:19:54.293Z,174.63
2022-08-20T11:22:41.457Z,174.10
2022-08-20T11:25:28.856Z,170.52
2022-08-20T11:28:16.244Z,168.20
2022-08-20T11:31:18.557Z,159.02
2022-08-20T11:34:09.406Z,158.50
2022-08-20T11:36:59.344Z,158.23
2022-08-20T11:39:46.590Z,153.27
2022-08-20T11:42:33.604Z,148.32
2022-08-20T11:45:20.586Z,149.23
2022-08-20T11:48:08.764Z,145.57
2022-08-20T11:50:55.885Z,147.75
2022-08-20T11:53:42.848Z,148.73
2022-08-20T11:56:30.186Z,144.35
2022-08-20T11:59:17.189Z,147.85
2022-08-20T12:02:06.082Z,141.70
2022-08-20T12:04:54.861Z,140.20
2022-08-20T12:07:41.971Z,135.82
2022-08-20T12:10:29.980Z,133.70
2022-08-20T12:13:16.994Z,129.25
2022-08-20T12:16:05.104Z,129.23
2022-08-20T12:18:52.561Z,129.55
2022-08-20T12:21:39.688Z,128.00
2022-08-20T12:24:26.724Z,126.40
2022-08-20T12:27:20.447Z,126.85
2022-08-20T12:30:17.241Z,127.60
2022-08-20T12:33:04.243Z,129.27
2022-08-20T12:35:51.746Z,130.77
2022-08-20T12:38:38.811Z,132.45
2022-08-20T12:41:25.812Z,140.70
2022-08-20T12:44:13.504Z,147.05
2022-08-20T12:47:15.961Z,143.13
2022-08-20T12:50:07.308Z,145.25
2022-08-20T12:52:54.385Z,151.55
2022-08-20T12:55:41.512Z,154.18
2022-08-20T12:58:28.467Z,151.85
2022-08-20T13:01:15.820Z,150.50
2022-08-20T13:04:04.195Z,145.48
2022-08-20T13:06:51.468Z,143.38
2022-08-20T13:09:40.442Z,140.23
2022-08-20T13:12:28.807Z,140.88
2022-08-20T13:15:16.179Z,132.55
2022-08-20T13:18:05.369Z,130.90
2022-08-20T13:20:52.419Z,125.57
2022-08-20T13:23:39.342Z,121.95
2022-08-20T13:26:26.424Z,118.18
2022-08-20T13:29:13.725Z,118.15
2022-08-20T13:32:00.907Z,117.13
2022-08-20T13:34:48.003Z,111.40
2022-08-20T13:37:35.198Z,112.13
2022-08-20T13:40:22.537Z,108.47
2022-08-20T13:43:12.016Z,107.68
2022-08-20T13:45:59.193Z,106.38
2022-08-20T13:48:46.325Z,106.82
2022-08-20T13:51:33.410Z,105.88
2022-08-20T13:54:20.479Z,103.97
2022-08-20T13:57:11.092Z,109.93
2022-08-20T13:59:58.627Z,110.13
2022-08-20T14:02:45.807Z,108.75
2022-08-20T14:05:34.200Z,113.43
2022-08-20T14:08:23.786Z,114.45
2022-08-20T14:11:12.820Z,118.35
2022-08-20T14:14:04.561Z,115.68
2022-08-20T14:16:51.569Z,116.90
2022-08-20T14:19:39.075Z,117.45
2022-08-20T14:22:26.646Z,119.57
2022-08-20T14:25:17.700Z,115.78
2022-08-20T14:28:19.997Z,118.28
2022-08-20T14:31:07.005Z,118.13
2022-08-20T14:33:56.622Z,116.82
2022-08-20T14:36:43.629Z,116.22
2022-08-20T14:39:30.590Z,116.00
2022-08-20T14:42:17.787Z,122.05
2022-08-20T14:45:07.141Z,120.00
2022-08-20T14:47:57.248Z,119.82
2022-08-20T14:50:44.268Z,118.57
2022-08-20T14:53:31.367Z,122.25
2022-08-20T14:56:18.337Z,121.40
2022-08-20T14:59:05.280Z,125.47
2022-08-20T15:01:52.419Z,127.65
2022-08-20T15:04:40.817Z,132.73
2022-08-20T15:07:31.238Z,130.88
2022-08-20T15:10:27.130Z,132.27
2022-08-20T15:13:14.170Z,131.00
2022-08-20T15:16:01.197Z,135.40
2022-08-20T15:18:48.102Z,134.05
2022-08-20T15:21:45.224Z,135.23
2022-08-20T15:24:32.658Z,131.77
2022-08-20T15:27:24.872Z,130.00
2022-08-20T15:30:16.832Z,128.77
2022-08-20T15:33:04.242Z,132.32
2022-08-20T15:35:51.211Z,128.73
2022-08-20T15:38:38.198Z,130.45
2022-08-20T15:41:30.294Z,130.80
2022-08-20T15:44:21.695Z,129.73
2022-08-20T15:47:29.737Z,131.57
2022-08-20T15:50:54.212Z,131.95
2022-08-20T15:54:02.434Z,133.40
2022-08-20T15:57:07.254Z,137.95
2022-08-20T16:03:28.326Z,132.80
2022-08-20T16:06:28.728Z,138.45
2022-08-20T16:09:32.966Z,136.13
2022-08-20T16:12:30.974Z,140.18
2022-08-20T16:15:23.900Z,137.70
2022-08-20T16:18:20.485Z,133.20
2022-08-20T16:21:14.205Z,132.63
2022-08-20T16:24:01.695Z,130.67
2022-08-20T16:26:54.590Z,130.52
2022-08-20T16:29:57.359Z,127.20
2022-08-20T16:33:01.876Z,126.28
2022-08-20T16:35:59.154Z,129.27
2022-08-20T16:38:54.687Z,126.55
2022-08-20T16:41:45.172Z,126.32
2022-08-20T16:44:38.495Z,128.07
2022-08-20T16:47:30.619Z,130.20
2022-08-20T16:50:25.941Z,130.90
2022-08-20T16:53:22.278Z,131.45
2022-08-20T16:56:09.363Z,132.65
2022-08-20T16:58:56.363Z,131.80
2022-08-20T17:01:44.029Z,133.63
2022-08-20T17:04:31.505Z,134.20
2022-08-20T17:07:40.729Z,132.40
2022-08-20T17:10:33.807Z,129.70
2022-08-20T17:13:28.171Z,133.73
2022-08-20T17:16:15.514Z,133.35
2022-08-20T17:19:27.158Z,132.77
2022-08-20T17:22:19.293Z,128.88
2022-08-20T17:25:20.145Z,132.63
2022-08-20T17:28:16.662Z,130.48
2022-08-20T17:31:03.749Z,130.35
2022-08-20T17:33:51.124Z,130.32
2022-08-20T17:36:53.232Z,129.98
2022-08-20T17:39:49.952Z,127.40
2022-08-20T17:42:52.567Z,128.23
2022-08-20T17:45:44.998Z,127.65
2022-08-20T17:48:59.687Z,124.60
2022-08-20T17:51:53.627Z,124.68
2022-08-20T17:54:45.393Z,125.30
2022-08-20T17:57:38.006Z,122.35
2022-08-20T18:00:28.623Z,121.10
2022-08-20T18:03:18.999Z,123.65
2022-08-20T18:06:18.171Z,121.93
2022-08-20T18:09:17.216Z,122.85
2022-08-20T18:12:07.747Z,124.90
2022-08-20T18:15:24.232Z,119.13
2022-08-20T18:18:28.324Z,120.10
2022-08-20T18:21:34.251Z,119.10
2022-08-20T18:24:42.536Z,118.20
2022-08-20T18:27:37.823Z,117.20
2022-08-20T18:30:27.022Z,116.35
2022-08-20T18:33:14.345Z,117.65
2022-08-20T18:36:24.703Z,116.38
2022-08-20T18:39:28.975Z,113.28
2022-08-20T18:42:22.040Z,114.68
2022-08-20T18:45:09.524Z,113.63
2022-08-20T18:47:56.878Z,114.35
2022-08-20T18:50:48.947Z,113.10
2022-08-20T18:53:36.444Z,113.88
2022-08-20T18:56:34.630Z,111.88
2022-08-20T18:59:22.167Z,112.30
2022-08-20T19:02:19.197Z,111.25
2022-08-20T19:05:12.150Z,109.07
2022-08-20T19:08:02.710Z,112.03
2022-08-20T19:11:07.040Z,111.45
2022-08-20T19:14:09.609Z,111.30
2022-08-20T19:17:04.424Z,108.57
2022-08-20T19:20:04.197Z,109.90
2022-08-20T19:22:54.137Z,109.38
2022-08-20T19:25:55.295Z,107.68
2022-08-20T19:28:49.198Z,108.20
2022-08-20T19:31:37.214Z,106.32
2022-08-20T19:34:25.729Z,109.88
2022-08-20T19:37:34.976Z,106.07
2022-08-20T19:40:39.316Z,104.38
2022-08-20T19:43:27.625Z,106.47
2022-08-20T19:46:28.134Z,107.15
2022-08-20T19:49:33.081Z,105.95
2022-08-20T19:55:33.123Z,101.32
2022-08-20T19:58:25.881Z,103.18
2022-08-20T20:01:19.793Z,105.30
2022-08-20T20:04:14.653Z,100.25
2022-08-20T20:07:02.317Z,103.00
2022-08-20T20:09:54.144Z,102.88
2022-08-20T20:12:41.859Z,102.60
2022-08-20T20:15:28.942Z,103.95
2022-08-20T20:18:15.890Z,105.28
2022-08-20T20:21:21.071Z,103.93
2022-08-20T20:24:09.310Z,104.25
2022-08-20T20:26:59.321Z,103.32
2022-08-20T20:29:46.370Z,104.30
2022-08-20T20:32:36.375Z,104.18
2022-08-20T20:35:35.570Z,104.40
2022-08-20T20:38:28.113Z,103.32
2022-08-20T20:41:22.591Z,102.78
2022-08-20T20:44:45.097Z,103.05
2022-08-20T20:47:36.016Z,102.60
2022-08-20T20:50:34.519Z,105.95
2022-08-20T20:53:49.465Z,103.22
2022-08-20T20:56:43.510Z,102.03
2022-08-20T20:59:32.718Z,100.22
2022-08-20T21:02:22.458Z,101.68
2022-08-20T21:05:11.486Z,102.03
2022-08-20T21:08:01.764Z,101.93
2022-08-20T21:10:49.241Z,102.38
2022-08-20T21:13:36.451Z,101.22
2022-08-20T21:16:23.500Z,102.50
2022-08-20T21:19:11.615Z,99.10
2022-08-20T21:21:58.894Z,103.40
2022-08-20T21:24:48.698Z,102.65
2022-08-20T21:27:36.213Z,103.22
2022-08-20T21:30:25.050Z,102.40
2022-08-20T21:33:12.102Z,101.78
2022-08-20T21:35:59.184Z,101.32
2022-08-20T21:38:46.490Z,101.30
2022-08-20T21:41:34.337Z,100.88
2022-08-20T21:44:27.201Z,98.90
2022-08-20T21:47:17.001Z,99.82
2022-08-20T21:50:05.147Z,100.80
2022-08-20T21:52:59.298Z,100.90
2022-08-20T21:55:47.214Z,100.07
2022-08-20T21:58:34.501Z,101.72
2022-08-20T22:01:22.057Z,100.20
2022-08-20T22:04:09.673Z,100.63
2022-08-20T22:06:56.995Z,100.60
2022-08-20T22:09:44.027Z,99.72
2022-08-20T22:12:31.498Z,99.45
2022-08-20T22:15:18.740Z,99.40
2022-08-20T22:18:05.874Z,100.53
2022-08-20T22:20:52.933Z,99.22
2022-08-20T22:23:40.278Z,100.82
2022-08-20T22:26:27.556Z,97.03
2022-08-20T22:29:14.574Z,99.88
2022-08-20T22:32:02.011Z,102.85
2022-08-20T22:34:49.041Z,98.30
2022-08-20T22:37:36.073Z,98.47
2022-08-20T22:40:23.534Z,98.78
2022-08-20T22:43:10.626Z,99.65
2022-08-20T22:46:01.071Z,100.10
2022-08-20T22:48:48.049Z,97.85
2022-08-20T22:51:39.172Z,99.88
2022-08-20T22:54:28.056Z,97.78
2022-08-20T22:57:15.165Z,94.82
2022-08-20T23:00:12.574Z,95.82
2022-08-20T23:03:02.705Z,98.70
2022-08-20T23:05:49.705Z,97.35
2022-08-20T23:08:37.952Z,96.55
2022-08-20T23:11:24.901Z,99.53
2022-08-20T23:14:12.172Z,96.35
2022-08-20T23:17:11.316Z,96.82
2022-08-20T23:20:00.478Z,97.15
2022-08-20T23:22:47.420Z,92.70
2022-08-20T23:25:35.349Z,96.60
2022-08-20T23:28:23.944Z,97.13
2022-08-20T23:31:11.494Z,95.15
2022-08-20T23:33:58.465Z,98.05
2022-08-20T23:36:45.645Z,98.78
2022-08-20T23:39:32.909Z,98.05
2022-08-20T23:42:19.989Z,97.25
2022-08-20T23:45:07.904Z,96.25
2022-08-20T23:47:55.265Z,95.93
2022-08-20T23:50:42.316Z,92.55
2022-08-20T23:53:29.312Z,97.28
2022-08-20T23:56:16.560Z,93.75
2022-08-20T23:59:03.556Z,96.63
